Time,TemperatureF,DewpointF,PressureIn,WindDirection,WindDirectionDegrees,WindSpeedMPH,WindSpeedGustMPH,Humidity,HourlyPrecipIn,Conditions,Clouds,dailyrainin,SoftwareType,DateUTC
2013-07-11 00:02:00,74.0,-99.9,29.88,SW,231,9.0,14.0,-999,-99.99,,,-99.99,,2013-07-11 04:02:00,
2013-07-11 00:32:00,72.0,-99.9,29.88,West,279,8.0,9.0,-999,-99.99,,,-99.99,,2013-07-11 04:32:00,
2013-07-11 00:43:00,72.0,-99.9,29.88,West,277,8.0,9.0,-999,-99.99,,,-99.99,,2013-07-11 04:43:00,
2013-07-11 00:53:00,72.0,-99.9,29.88,West,269,7.0,9.0,-999,-99.99,,,-99.99,,2013-07-11 04:53:00,
2013-07-11 01:02:00,73.0,-99.9,29.88,SW,228,4.0,5.0,-999,-99.99,,,-99.99,,2013-07-11 05:02:00,
2013-07-11 01:22:00,75.0,-99.9,29.88,SW,214,5.0,7.0,-999,-99.99,,,-99.99,,2013-07-11 05:22:00,
2013-07-11 01:43:00,75.0,-99.9,29.87,SSW,206,6.0,9.0,-999,-99.99,,,-99.99,,2013-07-11 05:43:00,
2013-07-11 01:52:00,75.0,-99.9,29.88,SSW,201,9.0,12.0,-999,-99.99,,,-99.99,,2013-07-11 05:52:00,
2013-07-11 02:01:00,75.0,-99.9,29.88,SSW,212,9.0,12.0,-999,-99.99,,,-99.99,,2013-07-11 06:01:00,
2013-07-11 02:12:00,75.0,-99.9,29.87,SSW,211,9.0,13.0,-999,-99.99,,,-99.99,,2013-07-11 06:12:00,
2013-07-11 02:22:00,75.0,-99.9,29.87,SW,216,8.0,11.0,-999,-99.99,,,-99.99,,2013-07-11 06:22:00,
2013-07-11 02:32:00,75.0,-99.9,29.87,SSW,209,6.0,9.0,-999,-99.99,,,-99.99,,2013-07-11 06:32:00,
2013-07-11 02:43:00,74.0,-99.9,29.86,SSW,207,6.0,9.0,-999,-99.99,,,-99.99,,2013-07-11 06:43:00,
2013-07-11 02:53:00,74.0,-99.9,29.86,SSW,207,6.0,9.0,-999,-99.99,,,-99.99,,2013-07-11 06:53:00,
2013-07-11 03:02:00,75.0,-99.9,29.86,SSW,206,8.0,10.0,-999,-99.99,,,-99.99,,2013-07-11 07:02:00,
2013-07-11 03:22:00,75.0,-99.9,29.86,WSW,238,6.0,8.0,-999,-99.99,,,-99.99,,2013-07-11 07:22:00,
2013-07-11 03:32:00,75.0,-99.9,29.86,WSW,243,6.0,7.0,-999,-99.99,,,-99.99,,2013-07-11 07:32:00,
2013-07-11 03:45:00,75.0,-99.9,29.86,SSW,206,4.0,6.0,-999,-99.99,,,-99.99,,2013-07-11 07:45:00,
2013-07-11 03:53:00,75.0,-99.9,29.86,SW,221,4.0,7.0,-999,-99.99,,,-99.99,,2013-07-11 07:53:00,
2013-07-11 04:02:00,75.0,-99.9,29.86,SSW,204,5.0,6.0,-999,-99.99,,,-99.99,,2013-07-11 08:02:00,
2013-07-11 04:22:00,75.0,-99.9,29.85,SSW,212,5.0,6.0,-999,-99.99,,,-99.99,,2013-07-11 08:22:00,
2013-07-11 04:34:00,75.0,-99.9,29.85,SSW,211,8.0,10.0,-999,-99.99,,,-99.99,,2013-07-11 08:34:00,
2013-07-11 04:43:00,75.0,-99.9,29.85,SW,217,6.0,8.0,-999,-99.99,,,-99.99,,2013-07-11 08:43:00,
2013-07-11 04:53:00,75.0,-99.9,29.85,SW,220,6.0,9.0,-999,-99.99,,,-99.99,,2013-07-11 08:53:00,
2013-07-11 05:03:00,75.0,-99.9,29.85,SW,216,6.0,10.0,-999,-99.99,,,-99.99,,2013-07-11 09:03:00,
2013-07-11 05:33:00,75.0,-99.9,29.85,SW,215,6.0,9.0,-999,-99.99,,,-99.99,,2013-07-11 09:33:00,
2013-07-11 05:43:00,75.0,-99.9,29.86,SSW,205,6.0,8.0,-999,-99.99,,,-99.99,,2013-07-11 09:43:00,
2013-07-11 05:53:00,75.0,-99.9,29.87,SW,219,5.0,7.0,-999,-99.99,,,-99.99,,2013-07-11 09:53:00,
2013-07-11 06:01:00,76.0,-99.9,29.87,SW,235,9.0,11.0,-999,-99.99,,,-99.99,,2013-07-11 10:01:00,
2013-07-11 06:43:00,75.0,-99.9,29.88,SSW,209,7.0,8.0,-999,-99.99,,,-99.99,,2013-07-11 10:43:00,
2013-07-11 07:02:00,75.0,-99.9,29.88,SSW,203,10.0,13.0,-999,-99.99,,,-99.99,,2013-07-11 11:02:00,
2013-07-11 07:22:00,75.0,-99.9,29.88,SW,228,9.0,11.0,-999,-99.99,,,-99.99,,2013-07-11 11:22:00,
2013-07-11 07:33:00,76.0,-99.9,29.88,WSW,239,10.0,14.0,-999,-99.99,,,-99.99,,2013-07-11 11:33:00,
2013-07-11 07:43:00,76.0,-99.9,29.89,WSW,244,14.0,17.0,-999,-99.99,,,-99.99,,2013-07-11 11:43:00,
2013-07-11 07:53:00,76.0,-99.9,29.89,WSW,244,14.0,17.0,-999,-99.99,,,-99.99,,2013-07-11 11:53:00,
2013-07-11 08:01:00,76.0,-99.9,29.89,WSW,258,11.0,14.0,-999,-99.99,,,-99.99,,2013-07-11 12:01:00,
2013-07-11 08:22:00,75.0,-99.9,29.88,West,261,15.0,17.0,-999,-99.99,,,-99.99,,2013-07-11 12:22:00,
2013-07-11 08:43:00,75.0,-99.9,29.89,West,260,16.0,19.0,-999,-99.99,,,-99.99,,2013-07-11 12:43:00,
2013-07-11 08:57:00,75.0,-99.9,29.89,West,261,16.0,18.0,-999,-99.99,,,-99.99,,2013-07-11 12:57:00,
2013-07-11 09:04:00,74.0,-99.9,29.89,West,260,15.0,17.0,-999,-99.99,,,-99.99,,2013-07-11 13:04:00,
2013-07-11 11:06:00,71.0,-99.9,29.89,WSW,239,6.0,7.0,-999,-99.99,,,-99.99,,2013-07-11 15:06:00,
2013-07-11 11:25:00,71.0,-99.9,29.89,WSW,242,5.0,6.0,-999,-99.99,,,-99.99,,2013-07-11 15:25:00,
2013-07-11 11:38:00,71.0,-99.9,29.90,WSW,241,6.0,6.0,-999,-99.99,,,-99.99,,2013-07-11 15:38:00,
2013-07-11 12:06:00,71.0,-99.9,29.90,SSW,209,3.0,4.0,-999,-99.99,,,-99.99,,2013-07-11 16:06:00,
2013-07-11 12:36:00,70.0,-99.9,29.91,South,186,4.0,6.0,-999,-99.99,,,-99.99,,2013-07-11 16:36:00,
2013-07-11 12:50:00,70.0,-99.9,29.91,South,175,4.0,6.0,-999,-99.99,,,-99.99,,2013-07-11 16:50:00,
2013-07-11 12:56:00,70.0,-99.9,29.91,South,175,4.0,6.0,-999,-99.99,,,-99.99,,2013-07-11 16:56:00,
2013-07-11 13:03:00,71.0,-99.9,29.91,ESE,104,2.0,2.0,-999,-99.99,,,-99.99,,2013-07-11 17:03:00,
2013-07-11 13:40:00,71.0,-99.9,29.90,South,174,2.0,3.0,-999,-99.99,,,-99.99,,2013-07-11 17:40:00,
2013-07-11 13:50:00,71.0,-99.9,29.89,SSE,163,2.0,3.0,-999,-99.99,,,-99.99,,2013-07-11 17:50:00,
2013-07-11 14:06:00,72.0,-99.9,29.89,South,181,3.0,4.0,-999,-99.99,,,-99.99,,2013-07-11 18:06:00,
2013-07-11 15:13:00,72.0,-99.9,29.88,SSW,211,5.0,7.0,-999,-99.99,,,-99.99,,2013-07-11 19:13:00,
2013-07-11 15:39:00,74.0,-99.9,29.87,SW,225,5.0,8.0,-999,-99.99,,,-99.99,,2013-07-11 19:39:00,
2013-07-11 15:47:00,74.0,-99.9,29.87,SW,225,6.0,8.0,-999,-99.99,,,-99.99,,2013-07-11 19:47:00,
2013-07-11 16:07:00,74.0,-99.9,29.87,SW,221,5.0,6.0,-999,-99.99,,,-99.99,,2013-07-11 20:07:00,
2013-07-11 16:50:00,74.0,-99.9,29.87,SW,222,7.0,9.0,-999,-99.99,,,-99.99,,2013-07-11 20:50:00,
2013-07-11 17:06:00,74.0,-99.9,29.87,South,184,5.0,7.0,-999,-99.99,,,-99.99,,2013-07-11 21:06:00,
2013-07-11 17:26:00,73.0,-99.9,29.88,SSW,203,6.0,7.0,-999,-99.99,,,-99.99,,2013-07-11 21:26:00,
2013-07-11 17:36:00,74.0,-99.9,29.88,SSW,204,6.0,7.0,-999,-99.99,,,-99.99,,2013-07-11 21:36:00,
2013-07-11 18:06:00,74.0,-99.9,29.88,SSW,196,6.0,7.0,-999,-99.99,,,-99.99,,2013-07-11 22:06:00,
2013-07-11 18:36:00,73.0,-99.9,29.88,South,180,7.0,9.0,-999,-99.99,,,-99.99,,2013-07-11 22:36:00,
2013-07-11 18:55:00,73.0,-99.9,29.89,South,186,6.0,8.0,-999,-99.99,,,-99.99,,2013-07-11 22:55:00,
2013-07-11 19:07:00,72.0,-99.9,29.89,South,185,8.0,10.0,-999,-99.99,,,-99.99,,2013-07-11 23:07:00,
2013-07-11 19:37:00,71.0,-99.9,29.90,South,179,8.0,11.0,-999,-99.99,,,-99.99,,2013-07-11 23:37:00,
2013-07-11 19:48:00,71.0,-99.9,29.90,South,182,8.0,11.0,-999,-99.99,,,-99.99,,2013-07-11 23:48:00,
2013-07-11 20:00:00,72.0,-99.9,29.90,South,185,6.0,8.0,-999,-99.99,,,-99.99,,2013-07-12 00:00:00,
2013-07-11 20:06:00,72.0,-99.9,29.90,South,180,7.0,10.0,-999,-99.99,,,-99.99,,2013-07-12 00:06:00,
2013-07-11 20:37:00,72.0,-99.9,29.90,SSW,192,6.0,7.0,-999,-99.99,,,-99.99,,2013-07-12 00:37:00,
2013-07-11 20:47:00,72.0,-99.9,29.90,SSW,197,5.0,7.0,-999,-99.99,,,-99.99,,2013-07-12 00:47:00,
2013-07-11 20:58:00,71.0,-99.9,29.90,South,179,6.0,8.0,-999,-99.99,,,-99.99,,2013-07-12 00:58:00,
2013-07-11 21:05:00,71.0,-99.9,29.90,South,178,6.0,8.0,-999,-99.99,,,-99.99,,2013-07-12 01:05:00,
2013-07-11 22:09:00,71.0,-99.9,29.90,SSE,168,5.0,6.0,-999,-99.99,,,-99.99,,2013-07-12 02:09:00,
2013-07-11 22:46:00,71.0,-99.9,29.90,SSE,158,3.0,4.0,-999,-99.99,,,-99.99,,2013-07-12 02:46:00,
2013-07-11 23:26:00,70.0,-99.9,29.90,SW,222,4.0,6.0,-999,-99.99,,,-99.99,,2013-07-12 03:26:00,
2013-07-11 23:38:00,71.0,-99.9,29.90,SSE,152,3.0,4.0,-999,-99.99,,,-99.99,,2013-07-12 03:38:00,
2013-07-11 23:47:00,70.0,-99.9,29.90,South,170,2.0,3.0,-999,-99.99,,,-99.99,,2013-07-12 03:47:00,
2013-07-11 23:57:00,70.0,-99.9,29.90,SSW,198,3.0,4.0,-999,-99.99,,,-99.99,,2013-07-12 03:57:00,